createdAt,value
2023-03-13T00:00:24.844Z,59.99
2023-03-13T00:02:56.468Z,59.83
2023-03-13T00:05:24.950Z,59.82
2023-03-13T00:08:01.766Z,59.88
2023-03-13T00:10:30.445Z,59.97
2023-03-13T00:12:58.726Z,59.92
2023-03-13T00:15:27.330Z,60.05
2023-03-13T00:17:55.751Z,60.15
2023-03-13T00:20:25.687Z,60.19
2023-03-13T00:22:54.276Z,60.43
2023-03-13T00:25:35.243Z,60.52
2023-03-13T00:28:04.108Z,60.64
2023-03-13T00:30:34.137Z,60.64
2023-03-13T00:33:04.289Z,60.53
2023-03-13T00:35:34.227Z,60.40
2023-03-13T00:38:02.753Z,60.49
2023-03-13T00:40:31.436Z,60.40
2023-03-13T00:43:00.299Z,60.35
2023-03-13T00:45:30.032Z,60.37
2023-03-13T00:47:58.462Z,60.21
2023-03-13T00:50:28.921Z,60.22
2023-03-13T00:52:57.803Z,60.49
2023-03-13T00:55:26.814Z,60.42
2023-03-13T00:57:55.304Z,60.63
2023-03-13T01:00:23.976Z,60.83
2023-03-13T01:02:54.803Z,61.06
2023-03-13T01:05:23.826Z,61.15
2023-03-13T01:07:53.218Z,61.24
2023-03-13T01:10:27.204Z,61.40
2023-03-13T01:12:56.560Z,61.45
2023-03-13T01:15:27.391Z,61.40
2023-03-13T01:17:57.885Z,61.28
2023-03-13T01:20:26.947Z,61.36
2023-03-13T01:22:55.260Z,61.33
2023-03-13T01:25:24.933Z,61.26
2023-03-13T01:27:54.663Z,61.34
2023-03-13T01:30:23.910Z,61.31
2023-03-13T01:32:54.982Z,61.30
2023-03-13T01:35:25.256Z,61.33
2023-03-13T01:37:55.467Z,61.42
2023-03-13T01:40:24.553Z,61.54
2023-03-13T01:42:59.244Z,61.41
2023-03-13T01:46:02.687Z,61.52
2023-03-13T01:48:43.595Z,61.46
2023-03-13T01:51:23.294Z,61.36
2023-03-13T01:53:55.980Z,61.40
2023-03-13T01:56:28.694Z,61.28
2023-03-13T01:58:57.225Z,61.29
2023-03-13T02:01:26.059Z,61.30
2023-03-13T02:03:57.313Z,61.28
2023-03-13T02:06:27.036Z,61.34
2023-03-13T02:08:58.137Z,61.37
2023-03-13T02:11:32.177Z,61.35
2023-03-13T02:14:01.823Z,61.35
2023-03-13T02:16:30.639Z,61.38
2023-03-13T02:18:59.031Z,61.40
2023-03-13T02:21:38.745Z,61.60
2023-03-13T02:24:28.965Z,61.70
2023-03-13T02:26:57.408Z,61.75
2023-03-13T02:29:26.432Z,61.83
2023-03-13T02:31:56.146Z,62.06
2023-03-13T02:34:28.675Z,62.19
2023-03-13T02:36:58.926Z,62.25
2023-03-13T02:39:27.533Z,62.31
2023-03-13T02:41:57.873Z,62.49
2023-03-13T02:44:26.804Z,62.49
2023-03-13T02:46:55.330Z,62.57
2023-03-13T02:49:28.392Z,62.70
2023-03-13T02:51:58.805Z,62.83
2023-03-13T02:54:30.827Z,62.95
2023-03-13T02:57:02.037Z,63.03
2023-03-13T02:59:30.764Z,63.11
2023-03-13T03:01:59.343Z,63.16
2023-03-13T03:04:27.724Z,63.30
2023-03-13T03:06:57.512Z,63.27
2023-03-13T03:09:26.857Z,63.28
2023-03-13T03:12:03.844Z,63.37
2023-03-13T03:14:33.135Z,63.45
2023-03-13T03:17:02.144Z,63.39
2023-03-13T03:19:32.090Z,63.31
2023-03-13T03:22:01.827Z,63.30
2023-03-13T03:24:30.667Z,63.18
2023-03-13T03:26:59.087Z,63.17
2023-03-13T03:29:30.956Z,63.20
2023-03-13T03:32:01.201Z,63.24
2023-03-13T03:34:30.226Z,63.40
2023-03-13T03:37:03.209Z,63.44
2023-03-13T03:39:33.008Z,63.51
2023-03-13T03:42:02.090Z,63.54
2023-03-13T03:44:30.846Z,63.61
2023-03-13T03:47:02.421Z,63.57
2023-03-13T03:49:37.021Z,63.66
2023-03-13T03:52:05.899Z,63.52
2023-03-13T03:54:39.425Z,63.77
2023-03-13T03:57:08.233Z,63.93
2023-03-13T03:59:37.396Z,64.21
2023-03-13T04:02:09.003Z,64.13
2023-03-13T04:04:37.977Z,63.95
2023-03-13T04:07:10.440Z,63.77
2023-03-13T04:09:41.256Z,63.82
2023-03-13T04:12:18.068Z,63.94
2023-03-13T04:14:49.294Z,64.11
2023-03-13T04:17:17.989Z,64.04
2023-03-13T04:19:48.508Z,63.91
2023-03-13T04:22:17.342Z,63.89
2023-03-13T04:24:51.271Z,63.92
2023-03-13T04:27:21.151Z,63.95
2023-03-13T04:29:50.012Z,64.11
2023-03-13T04:33:01.194Z,64.15
2023-03-13T04:35:53.764Z,64.18
2023-03-13T04:38:30.962Z,64.32
2023-03-13T04:41:14.496Z,64.43
2023-03-13T04:44:12.315Z,64.46
2023-03-13T04:47:03.975Z,64.11
2023-03-13T04:50:01.550Z,64.14
2023-03-13T04:52:55.820Z,64.03
2023-03-13T04:55:48.857Z,64.50
2023-03-13T04:58:32.529Z,64.77
2023-03-13T05:01:16.119Z,64.76
2023-03-13T05:04:05.808Z,64.56
2023-03-13T05:06:57.390Z,64.30
2023-03-13T05:10:04.573Z,65.10
2023-03-13T05:12:44.930Z,64.50
2023-03-13T05:15:25.964Z,63.97
2023-03-13T05:18:04.604Z,64.98
2023-03-13T05:20:53.155Z,65.38
2023-03-13T05:23:34.545Z,66.25
2023-03-13T05:26:31.830Z,65.57
2023-03-13T05:29:20.544Z,64.81
2023-03-13T05:32:08.748Z,63.91
2023-03-13T05:35:06.352Z,63.62
2023-03-13T05:38:01.178Z,63.45
2023-03-13T05:40:50.855Z,63.98
2023-03-13T05:43:38.685Z,64.01
2023-03-13T05:46:25.680Z,63.48
2023-03-13T05:49:26.636Z,62.87
2023-03-13T05:52:15.293Z,62.50
2023-03-13T05:54:51.535Z,62.19
2023-03-13T05:57:52.645Z,62.15
2023-03-13T06:00:40.924Z,62.19
2023-03-13T06:03:28.563Z,62.49
2023-03-13T06:06:01.566Z,62.33
2023-03-13T06:08:40.809Z,62.35
2023-03-13T06:11:09.974Z,62.39
2023-03-13T06:13:38.970Z,62.66
2023-03-13T06:16:19.488Z,62.83
2023-03-13T06:18:49.918Z,62.77
2023-03-13T06:21:18.428Z,62.89
2023-03-13T06:23:47.494Z,62.82
2023-03-13T06:26:17.616Z,62.49
2023-03-13T06:28:46.138Z,62.46
2023-03-13T06:31:15.294Z,62.37
2023-03-13T06:33:44.258Z,62.73
2023-03-13T06:36:13.157Z,63.22
2023-03-13T06:38:42.013Z,63.70
2023-03-13T06:41:14.733Z,64.04
2023-03-13T06:43:43.845Z,64.27
2023-03-13T06:46:20.887Z,64.49
2023-03-13T06:48:49.578Z,64.45
2023-03-13T06:51:19.910Z,64.17
2023-03-13T06:53:48.396Z,63.62
2023-03-13T06:56:17.071Z,62.95
2023-03-13T06:58:49.504Z,62.68
2023-03-13T07:01:18.546Z,62.18
2023-03-13T07:03:50.215Z,61.17
2023-03-13T07:06:19.830Z,60.78
2023-03-13T07:08:48.707Z,60.71
2023-03-13T07:11:23.121Z,60.54
2023-03-13T07:14:00.458Z,60.41
2023-03-13T07:16:38.345Z,60.49
2023-03-13T07:19:06.752Z,60.77
2023-03-13T07:21:35.750Z,61.50
2023-03-13T07:24:09.269Z,62.00
2023-03-13T07:26:42.598Z,62.35
2023-03-13T07:29:17.039Z,62.26
2023-03-13T07:31:47.329Z,61.60
2023-03-13T07:34:15.620Z,60.83
2023-03-13T07:36:44.140Z,60.55
2023-03-13T07:39:12.738Z,60.81
2023-03-13T07:41:42.436Z,60.76
2023-03-13T07:44:10.759Z,61.12
2023-03-13T07:46:39.549Z,61.04
2023-03-13T07:49:08.012Z,60.81
2023-03-13T07:51:43.546Z,61.03
2023-03-13T07:54:16.234Z,61.47
2023-03-13T07:56:45.926Z,61.67
2023-03-13T07:59:14.196Z,61.35
2023-03-13T08:01:43.276Z,60.78
2023-03-13T08:04:14.151Z,60.68
2023-03-13T08:06:46.027Z,60.22
2023-03-13T08:09:14.642Z,60.04
2023-03-13T08:11:44.774Z,60.06
2023-03-13T08:14:13.140Z,60.23
2023-03-13T08:16:42.708Z,59.90
2023-03-13T08:19:11.351Z,60.01
2023-03-13T08:21:40.695Z,60.58
2023-03-13T08:24:10.820Z,60.92
2023-03-13T08:26:42.138Z,60.64
2023-03-13T08:29:12.394Z,59.62
2023-03-13T08:31:48.265Z,59.27
2023-03-13T08:34:17.561Z,58.89
2023-03-13T08:36:46.539Z,59.01
2023-03-13T08:39:16.622Z,58.66
2023-03-13T08:41:45.388Z,58.17
2023-03-13T08:44:21.646Z,57.93
2023-03-13T08:46:50.797Z,57.72
2023-03-13T08:49:20.046Z,57.22
2023-03-13T08:51:50.198Z,56.94
2023-03-13T08:54:18.789Z,56.39
2023-03-13T08:56:47.260Z,56.29
2023-03-13T08:59:16.077Z,55.74
2023-03-13T09:01:44.820Z,55.55
2023-03-13T09:04:13.636Z,55.58
2023-03-13T09:06:42.247Z,55.38
2023-03-13T09:09:11.849Z,55.30
2023-03-13T09:11:42.465Z,55.02
2023-03-13T09:14:18.481Z,54.84
2023-03-13T09:16:49.046Z,54.46
2023-03-13T09:19:17.679Z,54.25
2023-03-13T09:21:49.570Z,53.88
2023-03-13T09:24:18.762Z,53.16
2023-03-13T09:27:00.350Z,52.75
2023-03-13T09:29:29.911Z,52.30
2023-03-13T09:31:58.216Z,51.39
2023-03-13T09:34:27.203Z,50.53
2023-03-13T09:36:55.542Z,50.44
2023-03-13T09:39:27.388Z,50.33
2023-03-13T09:41:59.224Z,50.19
2023-03-13T09:44:29.598Z,49.98
2023-03-13T09:47:06.907Z,49.97
2023-03-13T09:49:43.439Z,50.09
2023-03-13T09:52:22.452Z,50.45
2023-03-13T09:54:57.865Z,50.39
2023-03-13T09:57:56.163Z,50.67
2023-03-13T10:00:28.835Z,50.58
2023-03-13T10:03:13.885Z,50.62
2023-03-13T10:06:22.514Z,50.57
2023-03-13T10:08:53.742Z,50.21
2023-03-13T10:11:54.288Z,50.11
2023-03-13T10:14:39.845Z,49.80
2023-03-13T10:17:20.247Z,49.96
2023-03-13T10:19:52.164Z,49.59
2023-03-13T10:22:25.441Z,49.78
2023-03-13T10:24:59.788Z,50.15
2023-03-13T10:27:30.876Z,49.93
2023-03-13T10:30:00.676Z,50.03
2023-03-13T10:32:29.346Z,49.49
2023-03-13T10:35:00.005Z,49.02
2023-03-13T10:37:29.441Z,49.27
2023-03-13T10:40:13.386Z,49.69
2023-03-13T10:42:45.796Z,50.11
2023-03-13T10:45:22.714Z,49.99
2023-03-13T10:47:58.484Z,50.14
2023-03-13T10:50:27.718Z,50.39
2023-03-13T10:52:56.444Z,50.45
2023-03-13T10:55:25.953Z,50.10
2023-03-13T10:58:04.308Z,50.22
2023-03-13T11:00:36.252Z,50.49
2023-03-13T11:03:24.392Z,50.59
2023-03-13T11:06:00.981Z,50.59
2023-03-13T11:08:35.747Z,50.24
2023-03-13T11:11:05.819Z,50.73
2023-03-13T11:13:43.197Z,51.30
2023-03-13T11:16:31.584Z,51.79
2023-03-13T11:19:11.613Z,51.64
2023-03-13T11:22:02.443Z,51.39
2023-03-13T11:24:55.176Z,51.39
2023-03-13T11:27:56.146Z,51.13
2023-03-13T11:30:46.190Z,51.00
2023-03-13T11:33:20.486Z,51.13
2023-03-13T11:36:02.416Z,51.10
2023-03-13T11:38:37.073Z,51.47
2023-03-13T11:41:21.786Z,51.74
2023-03-13T11:44:24.163Z,52.23
2023-03-13T11:47:06.348Z,52.61
2023-03-13T11:49:50.232Z,53.19
2023-03-13T11:53:04.074Z,53.46
2023-03-13T11:55:54.062Z,54.24
2023-03-13T11:58:58.540Z,54.69
2023-03-13T12:01:29.073Z,55.17
2023-03-13T12:04:20.992Z,55.27
2023-03-13T12:06:58.193Z,55.26
2023-03-13T12:09:29.484Z,55.75
2023-03-13T12:12:05.949Z,56.23
2023-03-13T12:14:36.776Z,56.66
2023-03-13T12:17:37.992Z,56.72
2023-03-13T12:20:33.842Z,56.70
2023-03-13T12:23:17.334Z,56.48
2023-03-13T12:26:07.897Z,56.60
2023-03-13T12:29:04.709Z,56.89
2023-03-13T12:31:52.685Z,56.63
2023-03-13T12:34:31.241Z,56.35
2023-03-13T12:37:09.135Z,56.00
2023-03-13T12:39:47.972Z,55.72
2023-03-13T12:42:37.023Z,55.29
2023-03-13T12:45:07.202Z,54.69
2023-03-13T12:48:09.501Z,54.65
2023-03-13T12:50:59.053Z,54.57
2023-03-13T12:53:36.637Z,54.79
2023-03-13T12:56:16.780Z,55.68
2023-03-13T12:59:20.591Z,55.72
2023-03-13T13:01:51.479Z,55.80
2023-03-13T13:04:23.073Z,56.07
2023-03-13T13:06:56.365Z,56.22
2023-03-13T13:09:36.362Z,56.54
2023-03-13T13:12:23.365Z,56.61
2023-03-13T13:14:52.085Z,56.78
2023-03-13T13:17:41.050Z,56.78
2023-03-13T13:20:28.579Z,57.10
2023-03-13T13:23:25.745Z,56.96
2023-03-13T13:25:55.865Z,56.79
2023-03-13T13:28:35.256Z,56.43
2023-03-13T13:31:26.948Z,56.33
2023-03-13T13:33:56.457Z,56.65
2023-03-13T13:36:28.761Z,56.83
2023-03-13T13:38:57.619Z,57.04
2023-03-13T13:41:33.602Z,57.08
2023-03-13T13:44:22.361Z,57.06
2023-03-13T13:46:50.976Z,57.32
2023-03-13T13:49:21.092Z,57.42
2023-03-13T13:52:10.130Z,57.09
2023-03-13T13:54:44.848Z,56.88
2023-03-13T13:57:23.601Z,56.92
2023-03-13T13:59:52.370Z,56.87
2023-03-13T14:02:32.185Z,57.23
2023-03-13T14:05:14.709Z,57.50
2023-03-13T14:07:48.421Z,57.81
2023-03-13T14:10:37.322Z,58.41
2023-03-13T14:13:17.308Z,59.29
2023-03-13T14:15:53.152Z,59.79
2023-03-13T14:18:31.090Z,60.76
2023-03-13T14:20:59.801Z,61.59
2023-03-13T14:23:35.090Z,62.21
2023-03-13T14:26:21.122Z,62.89
2023-03-13T14:28:51.906Z,63.63
2023-03-13T14:31:26.621Z,64.12
2023-03-13T14:34:00.010Z,64.76
2023-03-13T14:36:28.548Z,65.21
2023-03-13T14:38:58.481Z,65.83
2023-03-13T14:41:37.811Z,66.51
2023-03-13T14:44:07.707Z,66.63
2023-03-13T14:46:36.505Z,67.05
2023-03-13T14:49:13.940Z,67.62
2023-03-13T14:51:42.685Z,68.30
2023-03-13T14:54:36.611Z,68.63
2023-03-13T14:57:21.449Z,68.88
2023-03-13T14:59:50.263Z,69.46
2023-03-13T15:02:23.123Z,69.85
2023-03-13T15:05:01.579Z,70.13
2023-03-13T15:07:38.866Z,70.59
2023-03-13T15:10:26.518Z,71.11
2023-03-13T15:12:55.246Z,71.56
2023-03-13T15:15:23.728Z,72.17
2023-03-13T15:17:53.282Z,72.79
2023-03-13T15:20:23.281Z,73.06
2023-03-13T15:22:52.311Z,73.34
2023-03-13T15:25:22.433Z,73.34
2023-03-13T15:27:51.263Z,73.47
2023-03-13T15:30:21.375Z,73.89
2023-03-13T15:32:49.883Z,74.33
2023-03-13T15:35:18.237Z,74.75
2023-03-13T15:37:46.765Z,75.19
2023-03-13T15:40:16.172Z,75.78
2023-03-13T15:42:49.350Z,76.09
2023-03-13T15:45:17.808Z,76.49
2023-03-13T15:47:46.293Z,76.84
2023-03-13T15:50:16.607Z,77.09
2023-03-13T15:52:45.117Z,77.60
2023-03-13T15:55:17.654Z,78.12
2023-03-13T15:57:47.505Z,78.76
2023-03-13T16:00:27.033Z,79.13
2023-03-13T16:02:55.785Z,79.44
2023-03-13T16:05:24.451Z,79.91
2023-03-13T16:07:57.312Z,80.12
2023-03-13T16:10:27.850Z,80.53
2023-03-13T16:13:00.658Z,80.96
2023-03-13T16:15:31.627Z,81.50
2023-03-13T16:18:00.150Z,82.17
2023-03-13T16:20:31.027Z,82.60
2023-03-13T16:23:03.876Z,83.17
2023-03-13T16:25:32.647Z,83.43
2023-03-13T16:28:01.279Z,83.82
2023-03-13T16:30:32.108Z,84.29
2023-03-13T16:33:04.394Z,84.61
2023-03-13T16:35:33.586Z,85.06
2023-03-13T16:38:02.823Z,85.47
2023-03-13T16:40:33.297Z,85.97
2023-03-13T16:43:01.917Z,86.51
2023-03-13T16:45:33.107Z,87.04
2023-03-13T16:48:02.376Z,87.40
2023-03-13T16:50:35.529Z,87.91
2023-03-13T16:53:04.833Z,87.89
2023-03-13T16:55:36.861Z,88.24
2023-03-13T16:58:05.966Z,88.44
2023-03-13T17:00:35.084Z,88.80
2023-03-13T17:03:04.201Z,89.27
2023-03-13T17:05:34.302Z,90.02
2023-03-13T17:08:03.045Z,90.56
2023-03-13T17:10:34.671Z,91.11
2023-03-13T17:13:05.745Z,91.26
2023-03-13T17:15:39.333Z,91.54
2023-03-13T17:18:09.634Z,91.64
2023-03-13T17:20:38.355Z,91.70
2023-03-13T17:23:10.480Z,91.73
2023-03-13T17:25:42.684Z,91.71
2023-03-13T17:28:16.136Z,92.04
2023-03-13T17:30:45.288Z,92.06
2023-03-13T17:33:13.796Z,91.96
2023-03-13T17:35:47.892Z,91.92
2023-03-13T17:38:17.258Z,92.17
2023-03-13T17:40:46.568Z,92.37
2023-03-13T17:43:17.004Z,92.43
2023-03-13T17:45:46.363Z,92.55
2023-03-13T17:48:15.523Z,92.34
2023-03-13T17:50:44.398Z,92.34
2023-03-13T17:53:13.565Z,92.52
2023-03-13T17:55:43.944Z,92.74
2023-03-13T17:58:13.291Z,93.06
2023-03-13T18:00:45.535Z,93.01
2023-03-13T18:03:14.167Z,92.84
2023-03-13T18:05:43.459Z,92.90
2023-03-13T18:08:13.452Z,92.96
2023-03-13T18:10:48.669Z,93.05
2023-03-13T18:13:22.170Z,93.20
2023-03-13T18:15:53.912Z,93.23
2023-03-13T18:18:23.432Z,93.80
2023-03-13T18:20:53.083Z,94.05
2023-03-13T18:23:28.733Z,94.55
2023-03-13T18:26:00.343Z,94.74
2023-03-13T18:28:29.685Z,94.83
2023-03-13T18:31:04.084Z,95.05
2023-03-13T18:33:34.205Z,95.15
2023-03-13T18:36:08.861Z,95.61
2023-03-13T18:38:38.704Z,95.78
2023-03-13T18:41:11.006Z,96.00
2023-03-13T18:43:41.011Z,96.37
2023-03-13T18:46:28.153Z,96.27
2023-03-13T18:48:57.836Z,96.09
2023-03-13T18:51:30.988Z,96.29
2023-03-13T18:53:59.903Z,96.43
2023-03-13T18:56:31.552Z,96.52
2023-03-13T18:59:04.611Z,96.79
2023-03-13T19:01:49.126Z,96.62
2023-03-13T19:04:26.340Z,96.91
2023-03-13T19:07:04.329Z,97.24
2023-03-13T19:10:02.778Z,97.26
2023-03-13T19:12:52.642Z,97.80
2023-03-13T19:15:33.139Z,97.85
2023-03-13T19:18:32.147Z,97.98
2023-03-13T19:21:03.320Z,98.09
2023-03-13T19:23:32.052Z,98.33
2023-03-13T19:26:00.636Z,98.47
2023-03-13T19:28:33.998Z,98.63
2023-03-13T19:31:02.718Z,98.83
2023-03-13T19:33:31.948Z,98.56
2023-03-13T19:36:01.878Z,98.30
2023-03-13T19:38:36.022Z,98.13
2023-03-13T19:41:05.217Z,97.99
2023-03-13T19:43:33.944Z,98.05
2023-03-13T19:46:05.672Z,98.15
2023-03-13T19:48:34.745Z,98.40
2023-03-13T19:51:04.308Z,98.35
2023-03-13T19:53:34.838Z,98.46
2023-03-13T19:56:32.733Z,98.25
2023-03-13T19:59:10.376Z,97.93
2023-03-13T20:01:39.408Z,97.78
2023-03-13T20:04:09.116Z,97.48
2023-03-13T20:06:38.395Z,97.57
2023-03-13T20:09:23.623Z,97.36
2023-03-13T20:12:12.948Z,97.39
2023-03-13T20:14:44.281Z,97.49
2023-03-13T20:17:15.774Z,97.47
2023-03-13T20:19:56.121Z,97.31
2023-03-13T20:22:41.502Z,97.00
2023-03-13T20:25:24.086Z,96.73
2023-03-13T20:27:58.892Z,96.70
2023-03-13T20:30:29.350Z,96.43
2023-03-13T20:33:00.182Z,96.24
2023-03-13T20:35:32.417Z,96.38
2023-03-13T20:38:08.073Z,96.59
2023-03-13T20:40:38.091Z,96.45
2023-03-13T20:43:07.111Z,96.24
2023-03-13T20:45:36.327Z,95.70
2023-03-13T20:48:05.288Z,95.40
2023-03-13T20:50:34.748Z,95.11
2023-03-13T20:53:04.869Z,94.94
2023-03-13T20:55:33.560Z,95.02
2023-03-13T20:58:47.191Z,95.28
2023-03-13T21:01:18.501Z,95.57
2023-03-13T21:03:48.412Z,95.80
2023-03-13T21:06:38.972Z,95.88
2023-03-13T21:09:11.780Z,95.96
2023-03-13T21:11:43.073Z,96.44
2023-03-13T21:14:11.612Z,96.53
2023-03-13T21:16:41.357Z,96.90
2023-03-13T21:19:10.054Z,96.77
2023-03-13T21:21:38.728Z,96.96
2023-03-13T21:24:08.045Z,97.17
2023-03-13T21:26:37.688Z,97.41
2023-03-13T21:29:07.087Z,97.45
2023-03-13T21:31:39.461Z,97.45
2023-03-13T21:34:08.879Z,97.31
2023-03-13T21:36:37.794Z,97.51
2023-03-13T21:39:08.546Z,97.76
2023-03-13T21:41:43.154Z,98.10
2023-03-13T21:44:13.018Z,98.34
2023-03-13T21:46:41.602Z,98.70
2023-03-13T21:49:12.410Z,98.67
2023-03-13T21:51:43.070Z,99.03
2023-03-13T21:54:11.674Z,99.01
2023-03-13T21:56:41.228Z,98.91
2023-03-13T21:59:13.828Z,98.85
2023-03-13T22:01:42.663Z,98.97
2023-03-13T22:04:12.592Z,98.83
2023-03-13T22:06:41.546Z,98.85
2023-03-13T22:09:12.260Z,99.14
2023-03-13T22:11:46.595Z,98.95
2023-03-13T22:14:17.101Z,98.91
2023-03-13T22:16:45.875Z,98.95
2023-03-13T22:19:17.720Z,98.85
2023-03-13T22:21:46.912Z,98.88
2023-03-13T22:24:15.628Z,98.93
2023-03-13T22:26:44.436Z,99.00
2023-03-13T22:29:13.128Z,99.14
2023-03-13T22:31:42.253Z,99.47
2023-03-13T22:34:10.843Z,99.75
2023-03-13T22:36:39.904Z,99.98
2023-03-13T22:39:09.657Z,100.00
2023-03-13T22:41:38.420Z,100.00
2023-03-13T22:44:07.568Z,100.00
2023-03-13T22:46:35.931Z,99.93
2023-03-13T22:49:04.324Z,99.88
2023-03-13T22:51:33.360Z,99.93
2023-03-13T22:54:01.934Z,99.97
2023-03-13T22:56:31.762Z,100.00
2023-03-13T22:59:00.404Z,100.00
2023-03-13T23:01:31.050Z,100.00
2023-03-13T23:03:59.469Z,100.00
2023-03-13T23:06:27.974Z,100.00
2023-03-13T23:08:56.438Z,100.00
2023-03-13T23:11:24.982Z,100.00
2023-03-13T23:14:01.142Z,100.00
2023-03-13T23:16:30.475Z,100.00
2023-03-13T23:18:59.409Z,100.00
2023-03-13T23:21:27.961Z,100.00
2023-03-13T23:23:56.669Z,100.00
2023-03-13T23:26:25.147Z,100.00
2023-03-13T23:28:53.833Z,100.00
2023-03-13T23:31:23.865Z,100.00
2023-03-13T23:33:56.383Z,100.00
2023-03-13T23:36:25.949Z,100.00
2023-03-13T23:38:55.221Z,100.00
2023-03-13T23:41:23.714Z,100.00
2023-03-13T23:43:52.073Z,100.00
2023-03-13T23:46:22.456Z,100.00
2023-03-13T23:48:55.231Z,100.00
2023-03-13T23:51:24.936Z,100.00
2023-03-13T23:53:53.612Z,100.00
2023-03-13T23:56:22.254Z,100.00
2023-03-13T23:58:55.792Z,100.00
